Lamar, Texas
Current Conditions -  °F | °C
As of 5:53 AM on Sunday 23 Nov 2014 (Local Time) from KRKP Reporting Station
Clear Clear  
Wind Chill: 59°   Ceiling: Unl
Heat Index: 59°   Visibility: 10mi
Dew Point: 59°   Wind: 6mph
Humidity: 100%   Direction: 230°SW
Pressure: 29.72"   Gusts: NA
Location:  28.2335°N, 96.9422°W
Report Text: KRKP 231153Z AUTO 23005KT 10SM CLR 15/15 A2972 RMK AO2 SLP066 70039 T01500150 10167 20150 55004
Loading
Personal Weather Stations






























Interactive Weather Map New forecast layout! Learn more

10-Day Weather Forecast

Advertisements
Track Severe Weather on mobile